createdAt,value
2022-10-11T00:01:41.316Z,11.32
2022-10-11T00:04:29.471Z,11.34
2022-10-11T00:07:17.794Z,11.36
2022-10-11T00:10:07.151Z,11.47
2022-10-11T00:12:55.408Z,11.45
2022-10-11T00:15:43.246Z,11.40
2022-10-11T00:18:32.663Z,11.36
2022-10-11T00:21:21.582Z,11.29
2022-10-11T00:24:16.008Z,11.34
2022-10-11T00:27:03.951Z,11.33
2022-10-11T00:29:51.961Z,11.37
2022-10-11T00:32:40.808Z,11.36
2022-10-11T00:35:29.939Z,11.41
2022-10-11T00:38:18.517Z,11.46
2022-10-11T00:41:06.945Z,11.44
2022-10-11T00:44:13.902Z,11.39
2022-10-11T00:47:04.106Z,11.33
2022-10-11T00:49:57.584Z,11.30
2022-10-11T00:52:51.239Z,11.29
2022-10-11T00:55:44.551Z,11.27
2022-10-11T00:58:34.999Z,11.20
2022-10-11T01:01:23.246Z,11.23
2022-10-11T01:04:11.067Z,11.17
2022-10-11T01:07:00.068Z,11.14
2022-10-11T01:09:50.107Z,11.09
2022-10-11T01:12:41.324Z,11.05
2022-10-11T01:15:36.039Z,11.07
2022-10-11T01:18:31.730Z,11.02
2022-10-11T01:21:32.308Z,10.92
2022-10-11T01:24:49.369Z,10.87
2022-10-11T01:27:56.590Z,10.91
2022-10-11T01:30:46.835Z,10.90
2022-10-11T01:33:41.671Z,10.88
2022-10-11T01:36:34.119Z,10.82
2022-10-11T01:39:26.861Z,10.82
2022-10-11T01:42:15.679Z,10.81
2022-10-11T01:45:04.018Z,10.83
2022-10-11T01:48:05.805Z,10.75
2022-10-11T01:50:56.905Z,10.75
2022-10-11T01:54:00.802Z,10.80
2022-10-11T01:57:05.268Z,10.83
2022-10-11T02:00:03.726Z,10.83
2022-10-11T02:03:06.115Z,10.83
2022-10-11T02:06:02.613Z,10.82
2022-10-11T02:08:57.133Z,10.86
2022-10-11T02:11:45.014Z,10.84
2022-10-11T02:14:36.652Z,10.91
2022-10-11T02:17:31.856Z,10.94
2022-10-11T02:20:24.254Z,10.99
2022-10-11T02:23:16.215Z,11.01
2022-10-11T02:26:07.968Z,11.05
2022-10-11T02:29:01.336Z,11.14
2022-10-11T02:31:51.424Z,11.14
2022-10-11T02:34:44.611Z,11.18
2022-10-11T02:37:41.141Z,11.16
2022-10-11T02:40:33.457Z,11.20
2022-10-11T02:43:29.403Z,11.19
2022-10-11T02:46:18.750Z,11.15
2022-10-11T02:49:11.296Z,11.14
2022-10-11T02:51:59.901Z,11.19
2022-10-11T02:54:48.929Z,11.14
2022-10-11T02:57:36.878Z,11.14
2022-10-11T03:00:24.823Z,11.08
2022-10-11T03:03:13.000Z,11.11
2022-10-11T03:06:01.648Z,11.14
2022-10-11T03:08:49.824Z,11.17
2022-10-11T03:11:39.203Z,11.19
2022-10-11T03:14:27.364Z,11.10
2022-10-11T03:17:35.154Z,11.06
2022-10-11T03:20:23.316Z,11.06
2022-10-11T03:23:11.002Z,11.10
2022-10-11T03:25:58.987Z,11.12
2022-10-11T03:28:48.578Z,11.12
2022-10-11T03:31:36.396Z,11.14
2022-10-11T03:34:24.388Z,11.20
2022-10-11T03:37:12.276Z,11.19
2022-10-11T03:40:00.468Z,11.19
2022-10-11T03:42:48.787Z,11.22
2022-10-11T03:45:38.153Z,11.28
2022-10-11T03:48:26.614Z,11.27
2022-10-11T03:51:15.086Z,11.23
2022-10-11T03:54:03.414Z,11.19
2022-10-11T03:56:51.392Z,11.27
2022-10-11T03:59:39.116Z,11.29
2022-10-11T04:02:28.358Z,11.27
2022-10-11T04:05:16.301Z,11.30
2022-10-11T04:08:07.379Z,11.33
2022-10-11T04:10:59.315Z,11.38
2022-10-11T04:13:47.383Z,11.39
2022-10-11T04:16:38.614Z,11.43
2022-10-11T04:19:27.900Z,11.46
2022-10-11T04:22:15.931Z,11.45
2022-10-11T04:25:04.137Z,11.49
2022-10-11T04:27:52.167Z,11.46
2022-10-11T04:30:40.312Z,11.42
2022-10-11T04:33:28.664Z,11.44
2022-10-11T04:36:17.867Z,11.46
2022-10-11T04:39:06.168Z,11.49
2022-10-11T04:41:54.175Z,11.49
2022-10-11T04:44:42.245Z,11.50
2022-10-11T04:47:30.255Z,11.52
2022-10-11T04:50:18.994Z,11.50
2022-10-11T04:53:08.123Z,11.50
2022-10-11T04:56:01.825Z,11.49
2022-10-11T04:58:54.020Z,11.52
2022-10-11T05:01:43.405Z,11.57
2022-10-11T05:04:31.656Z,11.57
2022-10-11T05:07:19.365Z,11.52
2022-10-11T05:10:10.356Z,11.53
2022-10-11T05:12:58.488Z,11.53
2022-10-11T05:15:46.512Z,11.54
2022-10-11T05:18:34.799Z,11.54
2022-10-11T05:21:24.498Z,11.56
2022-10-11T05:24:12.325Z,11.56
2022-10-11T05:27:03.489Z,11.59
2022-10-11T05:29:51.729Z,11.61
2022-10-11T05:32:39.728Z,11.62
2022-10-11T05:35:27.576Z,11.65
2022-10-11T05:38:15.541Z,11.64
2022-10-11T05:41:04.952Z,11.67
2022-10-11T05:43:54.116Z,11.65
2022-10-11T05:46:42.057Z,11.68
2022-10-11T05:49:30.044Z,11.69
2022-10-11T05:52:20.418Z,11.70
2022-10-11T05:55:09.464Z,11.71
2022-10-11T05:57:58.319Z,11.72
2022-10-11T06:00:47.624Z,11.73
2022-10-11T06:03:35.567Z,11.77
2022-10-11T06:06:23.860Z,11.80
2022-10-11T06:09:12.653Z,11.85
2022-10-11T06:12:00.850Z,11.89
2022-10-11T06:14:48.606Z,11.96
2022-10-11T06:17:38.428Z,11.96
2022-10-11T06:20:26.658Z,12.02
2022-10-11T06:23:14.705Z,12.05
2022-10-11T06:26:07.319Z,12.05
2022-10-11T06:29:20.985Z,12.07
2022-10-11T06:32:09.145Z,12.07
2022-10-11T06:34:58.629Z,12.07
2022-10-11T06:37:46.444Z,12.10
2022-10-11T06:40:34.446Z,12.10
2022-10-11T06:43:22.947Z,12.11
2022-10-11T06:46:11.381Z,12.14
2022-10-11T06:48:59.734Z,12.15
2022-10-11T06:51:48.794Z,12.20
2022-10-11T06:54:39.163Z,12.24
2022-10-11T06:57:30.973Z,12.24
2022-10-11T07:00:19.360Z,12.29
2022-10-11T07:03:08.393Z,12.30
2022-10-11T07:06:02.597Z,12.30
2022-10-11T07:08:52.991Z,12.30
2022-10-11T07:11:40.812Z,12.31
2022-10-11T07:14:29.068Z,12.33
2022-10-11T07:17:17.204Z,12.32
2022-10-11T07:20:06.039Z,12.33
2022-10-11T07:22:54.220Z,12.34
2022-10-11T07:25:43.818Z,12.34
2022-10-11T07:28:32.004Z,12.38
2022-10-11T07:31:22.414Z,12.41
2022-10-11T07:34:11.203Z,12.43
2022-10-11T07:36:59.999Z,12.45
2022-10-11T07:39:51.849Z,12.46
2022-10-11T07:42:41.427Z,12.47
2022-10-11T07:45:29.859Z,12.49
2022-10-11T07:48:18.147Z,12.51
2022-10-11T07:51:08.117Z,12.51
2022-10-11T07:53:57.376Z,12.56
2022-10-11T07:56:45.271Z,12.63
2022-10-11T07:59:34.733Z,12.65
2022-10-11T08:02:22.987Z,12.67
2022-10-11T08:05:10.817Z,12.75
2022-10-11T08:07:59.266Z,12.87
2022-10-11T08:10:47.537Z,12.95
2022-10-11T08:13:36.222Z,13.03
2022-10-11T08:16:26.003Z,13.11
2022-10-11T08:19:13.861Z,13.18
2022-10-11T08:22:02.228Z,13.27
2022-10-11T08:24:51.790Z,13.37
2022-10-11T08:27:40.004Z,13.46
2022-10-11T08:30:30.134Z,13.60
2022-10-11T08:33:20.959Z,13.65
2022-10-11T08:36:11.046Z,13.76
2022-10-11T08:38:59.553Z,13.87
2022-10-11T08:41:54.411Z,13.98
2022-10-11T08:45:10.199Z,14.08
2022-10-11T08:48:03.591Z,14.16
2022-10-11T08:50:55.691Z,14.27
2022-10-11T08:53:50.187Z,14.42
2022-10-11T08:56:40.324Z,14.56
2022-10-11T08:59:34.615Z,14.66
2022-10-11T09:02:55.473Z,14.78
2022-10-11T09:05:53.066Z,14.88
2022-10-11T09:08:58.743Z,14.96
2022-10-11T09:11:59.981Z,15.08
2022-10-11T09:15:03.768Z,15.20
2022-10-11T09:18:06.754Z,15.30
2022-10-11T09:21:08.731Z,15.43
2022-10-11T09:24:25.102Z,15.56
2022-10-11T09:27:33.244Z,15.66
2022-10-11T09:30:30.212Z,15.85
2022-10-11T09:33:22.403Z,15.99
2022-10-11T09:36:19.648Z,16.13
2022-10-11T09:39:14.770Z,16.25
2022-10-11T09:42:07.769Z,16.31
2022-10-11T09:44:57.405Z,16.45
2022-10-11T09:47:45.481Z,16.61
2022-10-11T09:50:33.995Z,16.80
2022-10-11T09:53:42.302Z,16.92
2022-10-11T09:56:52.330Z,17.08
2022-10-11T09:59:43.596Z,17.21
2022-10-11T10:02:40.416Z,17.28
2022-10-11T10:05:29.684Z,17.41
2022-10-11T10:08:25.739Z,17.58
2022-10-11T10:11:16.391Z,17.74
2022-10-11T10:14:04.732Z,17.85
2022-10-11T10:17:10.176Z,17.95
2022-10-11T10:20:34.869Z,18.17
2022-10-11T10:23:54.793Z,18.44
2022-10-11T10:26:42.638Z,18.58
2022-10-11T10:29:30.777Z,18.71
2022-10-11T10:32:28.107Z,18.85
2022-10-11T10:35:38.446Z,19.01
2022-10-11T10:38:33.918Z,19.14
2022-10-11T10:41:21.665Z,19.23
2022-10-11T10:44:11.840Z,19.33
2022-10-11T10:47:10.783Z,19.37
2022-10-11T10:50:08.674Z,19.39
2022-10-11T10:53:14.024Z,19.48
2022-10-11T10:56:09.948Z,19.54
2022-10-11T10:59:12.006Z,19.62
2022-10-11T11:02:16.018Z,19.70
2022-10-11T11:05:24.459Z,19.76
2022-10-11T11:08:17.196Z,19.78
2022-10-11T11:11:15.060Z,19.84
2022-10-11T11:14:12.097Z,19.98
2022-10-11T11:17:08.972Z,20.11
2022-10-11T11:20:10.135Z,20.22
2022-10-11T11:23:11.575Z,20.37
2022-10-11T11:26:09.031Z,20.57
2022-10-11T11:29:14.444Z,20.83
2022-10-11T11:32:17.579Z,20.92
2022-10-11T11:35:10.570Z,21.03
2022-10-11T11:38:06.559Z,21.13
2022-10-11T11:40:58.613Z,21.22
2022-10-11T11:44:04.191Z,21.31
2022-10-11T11:47:02.808Z,21.38
2022-10-11T11:49:56.861Z,21.40
2022-10-11T11:52:48.326Z,21.40
2022-10-11T11:55:48.252Z,21.38
2022-10-11T11:58:43.876Z,21.34
2022-10-11T12:01:39.614Z,21.38
2022-10-11T12:04:35.542Z,21.32
2022-10-11T12:07:26.290Z,21.28
2022-10-11T12:10:25.084Z,21.29
2022-10-11T12:13:34.789Z,21.35
2022-10-11T12:16:23.391Z,21.35
2022-10-11T12:19:15.310Z,21.32
2022-10-11T12:22:36.490Z,21.25
2022-10-11T12:26:09.251Z,21.22
2022-10-11T12:29:29.138Z,21.23
2022-10-11T12:32:51.297Z,21.23
2022-10-11T12:35:50.630Z,21.25
2022-10-11T12:38:40.174Z,21.37
2022-10-11T12:41:53.644Z,21.49
2022-10-11T12:44:47.147Z,21.51
2022-10-11T12:47:42.966Z,21.58
2022-10-11T12:50:40.734Z,21.62
2022-10-11T12:53:57.681Z,21.57
2022-10-11T12:57:22.781Z,21.58
2022-10-11T13:00:23.783Z,21.58
2022-10-11T13:03:32.513Z,21.70
2022-10-11T13:06:25.193Z,21.78
2022-10-11T13:09:19.675Z,21.83
2022-10-11T13:12:13.176Z,21.88
2022-10-11T13:15:06.953Z,21.92
2022-10-11T13:18:01.954Z,21.95
2022-10-11T13:20:49.961Z,21.95
2022-10-11T13:23:40.121Z,21.95
2022-10-11T13:26:30.698Z,21.89
2022-10-11T13:29:20.854Z,21.72
2022-10-11T13:32:14.618Z,21.58
2022-10-11T13:35:05.606Z,21.40
2022-10-11T13:37:53.810Z,21.26
2022-10-11T13:40:41.664Z,21.14
2022-10-11T13:43:32.044Z,21.07
2022-10-11T13:46:23.465Z,20.95
2022-10-11T13:49:37.507Z,20.89
2022-10-11T13:52:27.644Z,20.97
2022-10-11T13:55:26.080Z,21.02
2022-10-11T13:58:21.441Z,21.00
2022-10-11T14:01:20.845Z,20.91
2022-10-11T14:04:10.810Z,20.78
2022-10-11T14:07:02.346Z,20.63
2022-10-11T14:09:52.022Z,20.42
2022-10-11T14:12:44.430Z,20.29
2022-10-11T14:19:39.490Z,20.12
2022-10-11T14:22:27.470Z,20.06
2022-10-11T14:25:17.066Z,19.96
2022-10-11T14:28:05.720Z,19.84
2022-10-11T14:30:53.412Z,19.71
2022-10-11T14:33:41.357Z,19.60
2022-10-11T14:36:29.465Z,19.48
2022-10-11T14:39:19.915Z,19.39
2022-10-11T14:42:09.931Z,19.27
2022-10-11T14:44:57.886Z,19.16
2022-10-11T14:47:46.343Z,19.09
2022-10-11T14:50:40.496Z,19.03
2022-10-11T14:53:28.400Z,18.97
2022-10-11T14:56:21.121Z,18.93
2022-10-11T14:59:13.762Z,18.94
2022-10-11T15:02:01.880Z,18.92
2022-10-11T15:04:50.016Z,18.88
2022-10-11T15:07:37.887Z,18.87
2022-10-11T15:10:28.121Z,18.87
2022-10-11T15:13:16.110Z,18.82
2022-10-11T15:16:05.805Z,18.78
2022-10-11T15:18:54.015Z,18.74
2022-10-11T15:21:41.852Z,18.65
2022-10-11T15:24:29.410Z,18.56
2022-10-11T15:27:17.647Z,18.51
2022-10-11T15:30:14.972Z,18.44
2022-10-11T15:33:06.871Z,18.40
2022-10-11T15:35:55.069Z,18.32
2022-10-11T15:38:43.688Z,18.23
2022-10-11T15:41:31.901Z,18.12
2022-10-11T15:44:19.945Z,18.01
2022-10-11T15:47:08.040Z,17.91
2022-10-11T15:49:56.958Z,17.80
2022-10-11T15:52:48.724Z,17.74
2022-10-11T15:55:39.648Z,17.65
2022-10-11T15:58:38.104Z,17.56
2022-10-11T16:01:26.204Z,17.46
2022-10-11T16:04:14.202Z,17.33
2022-10-11T16:07:03.847Z,17.23
2022-10-11T16:09:51.660Z,17.12
2022-10-11T16:12:39.502Z,17.01
2022-10-11T16:15:35.919Z,16.90
2022-10-11T16:18:23.784Z,16.78
2022-10-11T16:21:15.690Z,16.68
2022-10-11T16:24:05.256Z,16.57
2022-10-11T16:26:53.292Z,16.47
2022-10-11T16:29:41.780Z,16.35
2022-10-11T16:32:30.494Z,16.25
2022-10-11T16:35:19.293Z,16.14
2022-10-11T16:38:07.262Z,16.05
2022-10-11T16:40:56.616Z,15.96
2022-10-11T16:43:44.546Z,15.86
2022-10-11T16:46:34.057Z,15.77
2022-10-11T16:49:26.117Z,15.68
2022-10-11T16:52:14.961Z,15.61
2022-10-11T16:55:02.793Z,15.52
2022-10-11T16:57:52.508Z,15.44
2022-10-11T17:00:44.380Z,15.34
2022-10-11T17:03:32.552Z,15.26
2022-10-11T17:06:20.873Z,15.18
2022-10-11T17:09:09.311Z,15.08
2022-10-11T17:11:57.332Z,14.99
2022-10-11T17:14:47.254Z,14.91
2022-10-11T17:17:35.139Z,14.82
2022-10-11T17:20:22.936Z,14.75
2022-10-11T17:23:10.904Z,14.64
2022-10-11T17:25:59.006Z,14.54
2022-10-11T17:28:47.473Z,14.43
2022-10-11T17:31:38.429Z,14.34
2022-10-11T17:34:28.283Z,14.26
2022-10-11T17:37:16.533Z,14.16
2022-10-11T17:40:04.642Z,14.08
2022-10-11T17:42:52.844Z,14.01
2022-10-11T17:45:44.000Z,13.93
2022-10-11T17:48:34.613Z,13.86
2022-10-11T17:51:22.565Z,13.79
2022-10-11T17:54:14.464Z,13.73
2022-10-11T17:57:02.209Z,13.68
2022-10-11T17:59:50.263Z,13.60
2022-10-11T18:02:40.143Z,13.54
2022-10-11T18:05:29.273Z,13.49
2022-10-11T18:08:17.272Z,13.43
2022-10-11T18:11:05.660Z,13.39
2022-10-11T18:13:54.671Z,13.36
2022-10-11T18:16:42.751Z,13.33
2022-10-11T18:19:30.404Z,13.31
2022-10-11T18:22:19.672Z,13.30
2022-10-11T18:25:08.016Z,13.31
2022-10-11T18:27:55.949Z,13.28
2022-10-11T18:30:45.306Z,13.28
2022-10-11T18:33:46.003Z,13.26
2022-10-11T18:36:34.508Z,13.25
2022-10-11T18:39:23.840Z,13.24
2022-10-11T18:42:11.603Z,13.22
2022-10-11T18:45:00.148Z,13.22
2022-10-11T18:47:50.715Z,13.21
2022-10-11T18:50:38.332Z,13.21
2022-10-11T18:53:26.465Z,13.19
2022-10-11T18:56:17.337Z,13.18
2022-10-11T18:59:06.337Z,13.15
2022-10-11T19:01:54.342Z,13.16
2022-10-11T19:04:42.475Z,13.14
2022-10-11T19:07:30.696Z,13.12
2022-10-11T19:10:18.853Z,13.11
2022-10-11T19:13:07.924Z,13.11
2022-10-11T19:15:55.832Z,13.07
2022-10-11T19:18:44.626Z,13.07
2022-10-11T19:21:32.950Z,13.07
2022-10-11T19:24:23.577Z,13.03
2022-10-11T19:27:11.530Z,13.03
2022-10-11T19:30:00.854Z,12.99
2022-10-11T19:32:48.570Z,12.98
2022-10-11T19:35:36.559Z,12.95
2022-10-11T19:38:24.512Z,12.92
2022-10-11T19:41:12.663Z,12.86
2022-10-11T19:44:00.780Z,12.85
2022-10-11T19:46:53.026Z,12.83
2022-10-11T19:49:41.191Z,12.80
2022-10-11T19:52:29.294Z,12.77
2022-10-11T19:55:17.520Z,12.73
2022-10-11T19:58:08.254Z,12.71
2022-10-11T20:01:03.167Z,12.67
2022-10-11T20:03:53.954Z,12.67
2022-10-11T20:06:45.728Z,12.63
2022-10-11T20:09:36.550Z,12.60
2022-10-11T20:12:24.263Z,12.59
2022-10-11T20:15:12.869Z,12.57
2022-10-11T20:18:02.773Z,12.55
2022-10-11T20:21:05.840Z,12.53
2022-10-11T20:23:57.358Z,12.50
2022-10-11T20:26:45.326Z,12.47
2022-10-11T20:29:35.290Z,12.44
2022-10-11T20:32:23.333Z,12.40
2022-10-11T20:35:11.354Z,12.35
2022-10-11T20:38:00.471Z,12.33
2022-10-11T20:40:48.400Z,12.32
2022-10-11T20:43:36.660Z,12.29
2022-10-11T20:46:26.858Z,12.25
2022-10-11T20:49:14.790Z,12.26
2022-10-11T20:52:02.725Z,12.24
2022-10-11T20:54:51.969Z,12.20
2022-10-11T20:57:39.656Z,12.20
2022-10-11T21:00:27.702Z,12.19
2022-10-11T21:03:17.447Z,12.18
2022-10-11T21:06:06.565Z,12.17
2022-10-11T21:08:56.531Z,12.15
2022-10-11T21:11:46.050Z,12.13
2022-10-11T21:14:33.772Z,12.13
2022-10-11T21:17:21.636Z,12.13
2022-10-11T21:20:10.525Z,12.12
2022-10-11T21:22:58.514Z,12.11
2022-10-11T21:25:46.605Z,12.08
2022-10-11T21:28:36.594Z,12.08
2022-10-11T21:31:27.470Z,12.06
2022-10-11T21:34:19.072Z,12.05
2022-10-11T21:37:06.815Z,12.03
2022-10-11T21:39:54.894Z,12.03
2022-10-11T21:42:43.221Z,12.01
2022-10-11T21:45:36.727Z,11.99
2022-10-11T21:48:24.860Z,11.97
2022-10-11T21:51:15.197Z,11.94
2022-10-11T21:54:03.288Z,11.94
2022-10-11T21:56:51.007Z,11.90
2022-10-11T21:59:39.222Z,11.90
2022-10-11T22:02:28.577Z,11.87
2022-10-11T22:05:16.650Z,11.85
2022-10-11T22:08:04.586Z,11.83
2022-10-11T22:10:56.711Z,11.80
2022-10-11T22:13:44.886Z,11.76
2022-10-11T22:16:33.585Z,11.75
2022-10-11T22:19:23.033Z,11.74
2022-10-11T22:22:10.993Z,11.71
2022-10-11T22:24:58.594Z,11.68
2022-10-11T22:27:46.575Z,11.65
2022-10-11T22:30:34.990Z,11.62
2022-10-11T22:33:22.682Z,11.58
2022-10-11T22:36:16.503Z,11.55
2022-10-11T22:39:07.767Z,11.52
2022-10-11T22:41:55.521Z,11.49
2022-10-11T22:44:43.447Z,11.45
2022-10-11T22:47:31.349Z,11.44
2022-10-11T22:50:19.449Z,11.42
2022-10-11T22:53:08.938Z,11.39
2022-10-11T22:55:56.890Z,11.37
2022-10-11T22:58:45.453Z,11.34
2022-10-11T23:01:33.814Z,11.32
2022-10-11T23:04:25.963Z,11.27
2022-10-11T23:07:13.921Z,11.25
2022-10-11T23:10:06.553Z,11.25
2022-10-11T23:12:54.200Z,11.22
2022-10-11T23:15:42.211Z,11.21
2022-10-11T23:18:30.025Z,11.20
2022-10-11T23:21:17.924Z,11.17
2022-10-11T23:24:09.122Z,11.15
2022-10-11T23:27:01.225Z,11.13
2022-10-11T23:29:49.005Z,11.12
2022-10-11T23:32:38.198Z,11.11
2022-10-11T23:35:26.134Z,11.08
2022-10-11T23:38:14.130Z,11.06
2022-10-11T23:41:02.230Z,11.05
2022-10-11T23:43:51.329Z,11.03
2022-10-11T23:46:39.156Z,11.01
2022-10-11T23:49:27.007Z,10.98
2022-10-11T23:52:15.292Z,10.97
2022-10-11T23:55:06.500Z,10.93
2022-10-11T23:58:03.519Z,10.92
